MU04 weather

Broadwater Airport
Malden, Missouri, United States

Public forecast

Using degrees Fahrenheit for public forecast. Weather courtesy of forecast.io.

METAR (pilot weather report)

Closest report is Poplar Bluff Municipal Airport, 22.4 nm (41.5 km) WNW. Retrieved 2019/06/27 06:19 UTC (0 seconds ago):

KPOF 270619Z AUTO 00000KT 10SM VCTS OVC065 21/21 A3016

TAF (pilot weather forecast)

Closest forecast is Cape Girardeau Regional Airport, 41.7 nm (77.2 km) NNE. Retrieved 2019/06/27 06:22 UTC (0 seconds ago):

TAF KCGI 270520Z 2706/2806 00000KT P6SM BKN120 FM271000 00000KT P6SM VCSH BKN040 FM271500 20004KT P6SM SCT040 BKN090 FM271800 18005KT P6SM VCTS SCT040CB BKN120 FM280200 15002KT P6SM BKN130